createdAt,value
2022-09-11T00:01:29.073Z,4.53
2022-09-11T00:08:32.342Z,5.37
2022-09-11T00:15:35.737Z,5.13
2022-09-11T00:22:39.557Z,6.07
2022-09-11T00:29:42.644Z,5.27
2022-09-11T00:36:46.178Z,5.60
2022-09-11T00:43:57.530Z,4.33
2022-09-11T00:51:11.087Z,4.90
2022-09-11T00:58:14.345Z,3.80
2022-09-11T01:05:17.568Z,6.93
2022-09-11T01:12:24.241Z,20.60
2022-09-11T01:19:27.261Z,4.00
2022-09-11T01:26:58.744Z,4.97
2022-09-11T01:34:36.040Z,5.13
2022-09-11T01:41:50.453Z,5.30
2022-09-11T01:48:55.361Z,3.40
2022-09-11T01:56:06.255Z,4.10
2022-09-11T02:03:27.733Z,4.00
2022-09-11T02:10:54.699Z,4.00
2022-09-11T02:18:06.534Z,3.53
2022-09-11T02:25:10.022Z,3.17
2022-09-11T02:32:14.172Z,3.70
2022-09-11T02:39:36.732Z,3.40
2022-09-11T02:47:17.505Z,4.17
2022-09-11T02:54:53.478Z,4.10
2022-09-11T03:02:02.238Z,3.90
2022-09-11T03:09:07.316Z,4.37
2022-09-11T03:16:12.416Z,4.20
2022-09-11T03:23:15.522Z,5.07
2022-09-11T03:30:18.579Z,5.87
2022-09-11T03:37:21.696Z,5.63
2022-09-11T03:44:25.405Z,6.60
2022-09-11T03:51:28.609Z,7.50
2022-09-11T03:58:31.665Z,7.50
2022-09-11T04:05:34.723Z,6.57
2022-09-11T04:12:37.757Z,7.30
2022-09-11T04:19:41.784Z,8.80
2022-09-11T04:26:45.217Z,8.10
2022-09-11T04:33:48.286Z,8.20
2022-09-11T04:40:55.469Z,7.73
2022-09-11T04:48:09.059Z,9.97
2022-09-11T04:55:16.743Z,8.40
2022-09-11T05:02:19.988Z,9.53
2022-09-11T05:09:23.080Z,8.20
2022-09-11T05:16:27.287Z,9.73
2022-09-11T05:23:34.769Z,11.20
2022-09-11T05:30:37.824Z,11.30
2022-09-11T05:37:41.394Z,11.00
2022-09-11T05:44:47.186Z,11.93
2022-09-11T05:52:01.547Z,11.90
2022-09-11T05:59:05.203Z,11.60
2022-09-11T06:06:12.503Z,11.93
2022-09-11T06:13:17.781Z,12.37
2022-09-11T06:20:20.790Z,12.50
2022-09-11T06:27:26.897Z,12.40
2022-09-11T06:34:31.607Z,12.03
2022-09-11T06:41:34.662Z,11.93
2022-09-11T06:48:37.697Z,12.47
2022-09-11T06:55:41.241Z,12.13
2022-09-11T07:02:45.199Z,11.77
2022-09-11T07:09:53.363Z,10.17
2022-09-11T07:17:04.037Z,11.57
2022-09-11T07:24:07.187Z,10.93
2022-09-11T07:31:11.188Z,9.90
2022-09-11T07:38:15.485Z,10.37
2022-09-11T07:45:22.463Z,11.07
2022-09-11T07:52:26.846Z,9.97
2022-09-11T07:59:35.171Z,9.13
2022-09-11T08:06:38.269Z,10.57
2022-09-11T08:13:42.883Z,9.50
2022-09-11T08:20:46.048Z,10.07
2022-09-11T08:27:49.584Z,9.43
2022-09-11T08:34:52.959Z,10.17
2022-09-11T08:41:56.487Z,9.63
2022-09-11T08:49:08.683Z,10.03
2022-09-11T08:56:30.389Z,10.73
2022-09-11T09:04:30.892Z,8.80
2022-09-11T09:11:50.610Z,9.17
2022-09-11T09:19:05.021Z,7.83
2022-09-11T09:26:19.061Z,8.17
2022-09-11T09:33:29.063Z,8.03
2022-09-11T09:40:33.324Z,7.80
2022-09-11T09:47:42.224Z,7.00
2022-09-11T09:54:51.812Z,7.70
2022-09-11T10:01:59.716Z,7.10
2022-09-11T10:09:38.763Z,8.50
2022-09-11T10:16:53.870Z,7.40
2022-09-11T10:24:30.404Z,8.40
2022-09-11T10:31:39.719Z,8.07
2022-09-11T10:39:04.104Z,7.77
2022-09-11T10:46:18.642Z,6.33
2022-09-11T10:53:22.883Z,6.87
2022-09-11T11:00:40.425Z,6.20
2022-09-11T11:08:03.001Z,8.13
2022-09-11T11:15:52.266Z,6.70
2022-09-11T11:23:27.408Z,6.20
2022-09-11T11:31:20.404Z,6.33
2022-09-11T11:38:33.122Z,6.47
2022-09-11T11:45:45.782Z,6.90
2022-09-11T11:52:58.663Z,7.67
2022-09-11T12:00:27.967Z,6.03
2022-09-11T12:07:33.261Z,5.03
2022-09-11T12:14:39.088Z,5.40
2022-09-11T12:22:27.243Z,4.70
2022-09-11T12:29:33.318Z,4.77
2022-09-11T12:36:54.031Z,4.33
2022-09-11T12:44:38.978Z,4.33
2022-09-11T12:51:43.307Z,3.50
2022-09-11T12:58:48.266Z,3.67
2022-09-11T13:06:04.694Z,3.43
2022-09-11T13:13:26.665Z,5.17
2022-09-11T13:20:38.543Z,5.53
2022-09-11T13:27:43.938Z,6.80
2022-09-11T13:35:02.204Z,6.70
2022-09-11T13:42:09.177Z,4.63
2022-09-11T13:49:24.540Z,3.93
2022-09-11T13:56:32.979Z,2.90
2022-09-11T14:03:38.628Z,2.50
2022-09-11T14:10:43.352Z,3.77
2022-09-11T14:17:55.022Z,2.27
2022-09-11T14:25:01.656Z,2.50
2022-09-11T14:32:36.828Z,2.83
2022-09-11T14:39:45.029Z,3.23
2022-09-11T14:46:48.160Z,3.50
2022-09-11T14:53:55.787Z,3.70
2022-09-11T15:00:58.928Z,3.60
2022-09-11T15:08:03.425Z,5.17
2022-09-11T15:15:06.456Z,4.30
2022-09-11T15:22:11.532Z,5.47
2022-09-11T15:29:14.844Z,4.87
2022-09-11T15:36:19.094Z,5.80
2022-09-11T15:43:22.760Z,4.50
2022-09-11T15:50:34.997Z,2.60
2022-09-11T15:57:39.284Z,2.70
2022-09-11T16:04:42.346Z,2.50
2022-09-11T16:11:46.972Z,2.70
2022-09-11T16:18:50.020Z,4.63
2022-09-11T16:25:53.197Z,1.97
2022-09-11T16:32:56.376Z,1.67
2022-09-11T16:40:01.788Z,12.27
2022-09-11T16:47:06.752Z,2.20
2022-09-11T16:54:09.806Z,1.50
2022-09-11T17:01:16.640Z,2.00
2022-09-11T17:08:23.497Z,3.20
2022-09-11T17:15:27.519Z,3.47
2022-09-11T17:22:31.425Z,1.90
2022-09-11T17:29:35.080Z,2.87
2022-09-11T17:36:38.658Z,3.13
2022-09-11T17:43:41.767Z,1.83
2022-09-11T17:50:44.804Z,2.53
2022-09-11T17:57:48.069Z,2.70
2022-09-11T18:04:59.591Z,2.87
2022-09-11T18:12:04.085Z,2.87
2022-09-11T18:19:07.653Z,2.90
2022-09-11T18:26:11.205Z,3.23
2022-09-11T18:33:16.485Z,5.17
2022-09-11T18:40:21.384Z,4.50
2022-09-11T18:47:27.773Z,4.00
2022-09-11T18:54:30.983Z,3.70
2022-09-11T19:01:34.690Z,4.63
2022-09-11T19:08:38.438Z,5.37
2022-09-11T19:15:41.659Z,5.20
2022-09-11T19:22:44.758Z,4.70
2022-09-11T19:29:50.044Z,4.50
2022-09-11T19:37:04.192Z,4.23
2022-09-11T19:44:07.486Z,4.33
2022-09-11T19:51:11.308Z,4.27
2022-09-11T19:58:14.404Z,5.20
2022-09-11T20:05:19.314Z,4.63
2022-09-11T20:12:24.969Z,4.50
2022-09-11T20:19:29.850Z,3.70
2022-09-11T20:26:33.046Z,4.77
2022-09-11T20:33:41.451Z,5.40
2022-09-11T20:40:46.245Z,11.27
2022-09-11T20:47:49.313Z,9.27
2022-09-11T20:54:54.270Z,14.43
2022-09-11T21:01:57.341Z,4.50
2022-09-11T21:09:00.489Z,4.50
2022-09-11T21:16:03.643Z,3.77
2022-09-11T21:23:06.918Z,4.70
2022-09-11T21:30:12.017Z,4.97
2022-09-11T21:37:15.150Z,4.60
2022-09-11T21:44:18.288Z,3.63
2022-09-11T21:51:21.605Z,4.57
2022-09-11T21:58:26.162Z,4.07
2022-09-11T22:05:29.230Z,3.53
2022-09-11T22:12:32.322Z,3.90
2022-09-11T22:19:35.560Z,3.60
2022-09-11T22:26:38.631Z,4.10
2022-09-11T22:33:41.927Z,3.57
2022-09-11T22:40:45.361Z,3.20
2022-09-11T22:47:52.087Z,2.60
2022-09-11T22:54:55.142Z,2.20
2022-09-11T23:01:58.747Z,2.30
2022-09-11T23:09:01.840Z,2.40
2022-09-11T23:16:07.840Z,2.80
2022-09-11T23:23:10.973Z,2.03
2022-09-11T23:30:15.102Z,2.43
2022-09-11T23:37:18.979Z,2.60
2022-09-11T23:44:22.115Z,2.17
2022-09-11T23:51:26.810Z,2.40
2022-09-11T23:58:29.932Z,2.97
